Terminal Aerodrome Forecast
Issued by NWS

Home | Current Version | Previous Version | Text Only | Print | Product List | Glossary On
Versions: 1 2 3 4 5 6 7 8 9 10 11 12 13 14 15 16 17 18 19 20 21 22 23 24 25 26 27 28 29 30 31 32 33 34 35 36 37 38
000
FTUS43 KDLH 192100 AAB
TAFHYR
TAF AMD
KHYR 192135Z 1922/2018 33003KT P6SM VCSH SCT025 BKN030
      TEMPO 1922/1923 1 1/2SM +RA BR
     FM200300 00000KT 5SM BR SCT007 BKN015
     FM200600 00000KT 3/4SM BR OVC002
     FM201500 00000KT 4SM BR BKN009
     FM201700 13006KT P6SM SCT015 BKN030=

USA.gov is the U.S. government's official web portal to all federal, state and local government web resources and services.